Maersk Vallvik — 9V8839 — position and weather

sailwx.info

Track history (hours):
 
Tides and Currents Weather Stations Pressure Air Temp Water Temp Dewpoint Dewpoint Depression Visibility Wind Speed Wind Dir Waves Ship Positions

Maersk Vallvik

Last reported at 2014-Oct-08 17:15 UTC. Time now 2014-Oct-21 08:47 UTC.
Position N 26°18' W 078°30'.
Warning: this ship's position is 12 days out of date.

Length 180 m; draft 8.9 m.

Type: Ship (hazmat cat A). MMSI: 564837000.

Date/timePositionNaut miles runAvg speedWind from/ knotsBaromVisibWave heightAir tempDewpointWater temp
2014-Oct-08 17:15N 26°18' W 078°30'72 4.0
2014-Oct-07 23:13N 27°17' W 079°16'1616.5
2014-Oct-07 22:16N 27°32' W 079°18'  
2014-Oct-04 23:25N 36°44' W 075°40'1112.4
2014-Oct-04 22:33N 36°51' W 075°51'1212.1
2014-Oct-04 21:34N 36°58' W 076°03'1413.3
2014-Oct-04 20:32N 36°58' W 076°20'5 5.3
2014-Oct-04 19:33N 36°53' W 076°21'0 0.0
2014-Oct-04 18:27N 36°53' W 076°21'0 0.0
2014-Oct-04 15:21N 36°53' W 076°21'0 0.0
2014-Oct-04 14:33N 36°53' W 076°21'0 0.0
2014-Oct-04 13:18N 36°53' W 076°21'0 0.0
2014-Oct-04 12:33N 36°53' W 076°21'0 0.0
2014-Oct-04 11:30N 36°53' W 076°21'0 0.0
2014-Oct-04 10:30N 36°53' W 076°21'0 0.0
2014-Oct-04 09:33N 36°53' W 076°21'6 5.8
2014-Oct-04 08:33N 36°58' W 076°20'1515.1
2014-Oct-04 07:33N 36°57' W 076°01'1313.2
2014-Oct-04 06:33N 37°09' W 076°09'1817.4
2014-Oct-04 05:31N 37°27' W 076°05'8216.4
2014-Oct-04 00:33N 38°47' W 076°25'1615.7
2014-Oct-03 23:33N 39°02' W 076°23'1111.2
2014-Oct-03 22:33N 39°12' W 076°30'4 3.8
2014-Oct-03 21:33N 39°15' W 076°33'0 0.0
2014-Oct-03 20:32N 39°15' W 076°33'0 0.0
2014-Oct-03 19:28N 39°15' W 076°33'0 0.0
2014-Oct-03 18:31N 39°15' W 076°33'0 0.0
2014-Oct-03 17:31N 39°15' W 076°33'0 0.0
2014-Oct-03 16:28N 39°15' W 076°33'0 0.0
2014-Oct-03 15:31N 39°15' W 076°33'0 0.0
2014-Oct-03 14:31N 39°15' W 076°33'0 0.0
2014-Oct-03 13:31N 39°15' W 076°33'0 0.0
2014-Oct-03 12:31N 39°15' W 076°33'0 0.0
2014-Oct-03 11:31N 39°15' W 076°33'0 0.0
2014-Oct-03 10:33N 39°15' W 076°33'6 6.1
2014-Oct-03 09:33N 39°11' W 076°27'1212.0
2014-Oct-03 08:33N 38°59' W 076°23'9317.3
2014-Oct-03 03:11N 37°28' W 076°04'1117.1
2014-Oct-03 02:33N 37°17' W 076°07'1616.0
2014-Oct-03 01:33N 37°01' W 076°03'1413.5
2014-Oct-03 00:33N 36°52' W 075°51'18412.3
2014-Oct-02 09:33N 39°33' W 073°57'1312.5
2014-Oct-02 08:33N 39°45' W 073°51'1212.3
2014-Oct-02 07:34N 39°57' W 073°50'2412.2
2014-Oct-02 05:33N 40°21' W 073°49'1211.0
2014-Oct-02 04:28N 40°31' W 073°58'8 9.2
2014-Oct-02 03:33N 40°38' W 074°04'0 0.0
2014-Oct-02 02:33N 40°38' W 074°04'0 0.0
2014-Oct-02 01:33N 40°38' W 074°04'0 0.0
2014-Oct-02 00:33N 40°38' W 074°04'0 0.0
2014-Oct-01 23:33N 40°38' W 074°04'2 1.7
2014-Oct-01 22:33N 40°39' W 074°06'4 2.9
2014-Oct-01 21:19N 40°41' W 074°09'0 0.0
2014-Oct-01 20:28N 40°41' W 074°09'0 0.0
2014-Oct-01 19:31N 40°41' W 074°09'0 0.0
2014-Oct-01 18:31N 40°41' W 074°09'0 0.0
2014-Oct-01 17:28N 40°41' W 074°09'0 0.0
2014-Oct-01 16:31N 40°41' W 074°09'0 0.0
2014-Oct-01 15:31N 40°41' W 074°09'0 0.0
2014-Oct-01 14:31N 40°41' W 074°09'0 0.0
2014-Oct-01 13:31N 40°41' W 074°09'0 0.0
2014-Oct-01 12:28N 40°41' W 074°09'0 0.0
2014-Oct-01 11:33N 40°41' W 074°09'3 2.8
2014-Oct-01 10:33N 40°39' W 074°08'5 4.7
2014-Oct-01 09:33N 40°36' W 074°03'1110.9
2014-Oct-01 08:33N 40°28' W 073°52'3712.5
2014-Oct-01 05:33N 40°08' W 073°11'1615.4
2014-Oct-01 04:29N 39°60' W 072°53'3015.4
2014-Oct-01 02:33N 39°47' W 072°18'1515.3
2014-Oct-01 01:33N 39°40' W 071°60'1615.5
2014-Oct-01 00:33N 39°33' W 071°42'1515.4
2014-Sep-30 23:33N 39°25' W 071°25'1615.3
2014-Sep-30 22:32N 39°18' W 071°07'  
Track history (hours):
 
Tides and Currents Weather Stations Pressure Air Temp Water Temp Dewpoint Dewpoint Depression Visibility Wind Speed Wind Dir Waves Ship Positions

Maersk Vallvik

Last reported at 2014-Oct-08 17:15 UTC. Time now 2014-Oct-21 08:47 UTC.
Position N 26°18' W 078°30'.
Warning: this ship's position is 12 days out of date.

Length 180 m; draft 8.9 m.

Type: Ship (hazmat cat A). MMSI: 564837000.

Date/timePositionNaut miles runAvg speedWind from/ knotsBaromVisibWave heightAir tempDewpointWater temp
2014-Oct-08 17:15N 26°18' W 078°30'72 4.0
2014-Oct-07 23:13N 27°17' W 079°16'1616.5
2014-Oct-07 22:16N 27°32' W 079°18'  
2014-Oct-04 23:25N 36°44' W 075°40'1112.4
2014-Oct-04 22:33N 36°51' W 075°51'1212.1
2014-Oct-04 21:34N 36°58' W 076°03'1413.3
2014-Oct-04 20:32N 36°58' W 076°20'5 5.3
2014-Oct-04 19:33N 36°53' W 076°21'0 0.0
2014-Oct-04 18:27N 36°53' W 076°21'0 0.0
2014-Oct-04 15:21N 36°53' W 076°21'0 0.0
2014-Oct-04 14:33N 36°53' W 076°21'0 0.0
2014-Oct-04 13:18N 36°53' W 076°21'0 0.0
2014-Oct-04 12:33N 36°53' W 076°21'0 0.0
2014-Oct-04 11:30N 36°53' W 076°21'0 0.0
2014-Oct-04 10:30N 36°53' W 076°21'0 0.0
2014-Oct-04 09:33N 36°53' W 076°21'6 5.8
2014-Oct-04 08:33N 36°58' W 076°20'1515.1
2014-Oct-04 07:33N 36°57' W 076°01'1313.2
2014-Oct-04 06:33N 37°09' W 076°09'1817.4
2014-Oct-04 05:31N 37°27' W 076°05'8216.4
2014-Oct-04 00:33N 38°47' W 076°25'1615.7
2014-Oct-03 23:33N 39°02' W 076°23'1111.2
2014-Oct-03 22:33N 39°12' W 076°30'4 3.8
2014-Oct-03 21:33N 39°15' W 076°33'0 0.0
2014-Oct-03 20:32N 39°15' W 076°33'0 0.0
2014-Oct-03 19:28N 39°15' W 076°33'0 0.0
2014-Oct-03 18:31N 39°15' W 076°33'0 0.0
2014-Oct-03 17:31N 39°15' W 076°33'0 0.0
2014-Oct-03 16:28N 39°15' W 076°33'0 0.0
2014-Oct-03 15:31N 39°15' W 076°33'0 0.0
2014-Oct-03 14:31N 39°15' W 076°33'0 0.0
2014-Oct-03 13:31N 39°15' W 076°33'0 0.0
2014-Oct-03 12:31N 39°15' W 076°33'0 0.0
2014-Oct-03 11:31N 39°15' W 076°33'0 0.0
2014-Oct-03 10:33N 39°15' W 076°33'6 6.1
2014-Oct-03 09:33N 39°11' W 076°27'1212.0
2014-Oct-03 08:33N 38°59' W 076°23'9317.3
2014-Oct-03 03:11N 37°28' W 076°04'1117.1
2014-Oct-03 02:33N 37°17' W 076°07'1616.0
2014-Oct-03 01:33N 37°01' W 076°03'1413.5
2014-Oct-03 00:33N 36°52' W 075°51'18412.3
2014-Oct-02 09:33N 39°33' W 073°57'1312.5
2014-Oct-02 08:33N 39°45' W 073°51'1212.3
2014-Oct-02 07:34N 39°57' W 073°50'2412.2
2014-Oct-02 05:33N 40°21' W 073°49'1211.0
2014-Oct-02 04:28N 40°31' W 073°58'8 9.2
2014-Oct-02 03:33N 40°38' W 074°04'0 0.0
2014-Oct-02 02:33N 40°38' W 074°04'0 0.0
2014-Oct-02 01:33N 40°38' W 074°04'0 0.0
2014-Oct-02 00:33N 40°38' W 074°04'0 0.0
2014-Oct-01 23:33N 40°38' W 074°04'2 1.7
2014-Oct-01 22:33N 40°39' W 074°06'4 2.9
2014-Oct-01 21:19N 40°41' W 074°09'0 0.0
2014-Oct-01 20:28N 40°41' W 074°09'0 0.0
2014-Oct-01 19:31N 40°41' W 074°09'0 0.0
2014-Oct-01 18:31N 40°41' W 074°09'0 0.0
2014-Oct-01 17:28N 40°41' W 074°09'0 0.0
2014-Oct-01 16:31N 40°41' W 074°09'0 0.0
2014-Oct-01 15:31N 40°41' W 074°09'0 0.0
2014-Oct-01 14:31N 40°41' W 074°09'0 0.0
2014-Oct-01 13:31N 40°41' W 074°09'0 0.0
2014-Oct-01 12:28N 40°41' W 074°09'0 0.0
2014-Oct-01 11:33N 40°41' W 074°09'3 2.8
2014-Oct-01 10:33N 40°39' W 074°08'5 4.7
2014-Oct-01 09:33N 40°36' W 074°03'1110.9
2014-Oct-01 08:33N 40°28' W 073°52'3712.5
2014-Oct-01 05:33N 40°08' W 073°11'1615.4
2014-Oct-01 04:29N 39°60' W 072°53'3015.4
2014-Oct-01 02:33N 39°47' W 072°18'1515.3
2014-Oct-01 01:33N 39°40' W 071°60'1615.5
2014-Oct-01 00:33N 39°33' W 071°42'1515.4
2014-Sep-30 23:33N 39°25' W 071°25'1615.3
2014-Sep-30 22:32N 39°18' W 071°07'  

Dump ship's entire track history